Time;durP1;ratioP1;P1;durP2;ratioP2;P2;SDS_P1;SDS_P2;PMS_P1;PMS_P2;Temp;Humidity;BMP_temperature;BMP_pressure;BME280_temperature;BME280_humidity;BME280_pressure;Samples;Min_cycle;Max_cycle;Signal;HPM_P1;HPM_P2
2022/10/04 00:01:59;;;;;;;;;;;;;;;;;;5068387;28;20014;-68
2022/10/04 00:04:26;;;;;;;;;;;;;;;;;;5073889;28;19935;-68
2022/10/04 00:06:53;;;;;;;;;;;;;;;;;;5090614;28;19928;-68
2022/10/04 00:09:22;;;;;;;;;;;;;;;;;;5093021;28;19931;-68
2022/10/04 00:11:49;;;;;;;;;;;;;;;;;;5087269;28;20319;-68
2022/10/04 00:14:16;;;;;;;;;;;;;;;;;;5090915;28;20375;-68
2022/10/04 00:16:43;;;;;;;;;;;;;;;;;;5087957;28;19955;-69
2022/10/04 00:19:10;;;;;;;;;;;;;;;;;;5088125;28;19985;-69
2022/10/04 00:21:37;;;;;;;;;;;;;;;;;;5090158;28;20256;-68
2022/10/04 00:24:04;;;;;;;;;;;;;;;;;;5068032;28;19928;-68
2022/10/04 00:26:31;;;;;;;;;;;;;;;;;;5082622;28;20451;-69
2022/10/04 00:28:58;;;;;;;;;;;;;;;;;;5088488;28;19928;-69
2022/10/04 00:31:25;;;;;;;;;;;;;;;;;;5086037;28;20368;-68
2022/10/04 00:33:52;;;;;;;;;;;;;;;;;;5060849;28;19936;-69
2022/10/04 00:36:19;;;;;;;;;;;;;;;;;;5067105;28;20437;-68
2022/10/04 00:38:46;;;;;;;;;;;;;;;;;;5066667;28;19985;-68
2022/10/04 00:41:13;;;;;;;;;;;;;;;;;;5085944;28;19986;-68
2022/10/04 00:43:40;;;;;;;;;;;;;;;;;;5089462;28;19993;-69
2022/10/04 00:46:08;;;;;;;;;;;;;;;;;;5086475;28;19935;-68
2022/10/04 00:48:35;;;;;;;;;;;;;;;;;;5094083;28;20015;-69
2022/10/04 00:51:02;;;;;;;;;;;;;;;;;;5084888;28;19979;-69
2022/10/04 00:53:29;;;;;;;;;;;;;;;;;;5088204;28;19987;-68
2022/10/04 00:55:57;;;;;;;;;;;;;;;;;;5077746;28;19924;-68
2022/10/04 00:58:24;;;;;;;;;;;;;;;;;;5080886;28;19928;-68
2022/10/04 01:00:51;;;;;;;;;;;;;;;;;;5085778;28;19930;-69
2022/10/04 01:03:18;;;;;;;;;;;;;;;;;;5080264;28;19928;-68
2022/10/04 01:05:45;;;;;;;;;;;;;;;;;;5078772;28;19939;-69
2022/10/04 01:08:12;;;;;;;;;;;;;;;;;;5083975;28;20389;-69
2022/10/04 01:10:39;;;;;;;;;;;;;;;;;;5084783;28;19928;-69
2022/10/04 01:13:06;;;;;;;;;;;;;;;;;;5079254;28;19932;-68
2022/10/04 01:15:33;;;;;;;;;;;;;;;;;;5086773;28;19971;-68
2022/10/04 01:18:00;;;;;;;;;;;;;;;;;;5088783;28;19925;-69
2022/10/04 01:20:27;;;;;;;;;;;;;;;;;;5088432;28;20015;-68
2022/10/04 01:22:54;;;;;;;;;;;;;;;;;;5088564;28;19932;-68
2022/10/04 01:25:21;;;;;;;;;;;;;;;;;;5082460;28;19931;-68
2022/10/04 01:27:48;;;;;;;;;;;;;;;;;;5080989;28;20707;-68
2022/10/04 01:30:15;;;;;;;;;;;;;;;;;;5087324;28;20289;-68
2022/10/04 01:32:42;;;;;;;;;;;;;;;;;;5085965;28;19940;-69
2022/10/04 01:35:09;;;;;;;;;;;;;;;;;;5092629;28;19928;-68
2022/10/04 01:37:38;;;;;;;;;;;;;;;;;;5086407;28;19924;-69
2022/10/04 01:40:05;;;;;;;;;;;;;;;;;;5091926;28;20357;-68
2022/10/04 01:42:32;;;;;;;;;;;;;;;;;;5087874;28;19924;-68
2022/10/04 01:44:59;;;;;;;;;;;;;;;;;;5088997;28;19952;-68
2022/10/04 01:47:26;;;;;;;;;;;;;;;;;;5076971;28;19925;-69
2022/10/04 01:49:54;;;;;;;;;;;;;;;;;;5075943;28;19932;-68
2022/10/04 01:52:21;;;;;;;;;;;;;;;;;;5071914;28;20210;-69
2022/10/04 01:54:48;;;;;;;;;;;;;;;;;;5081278;28;19951;-68
2022/10/04 01:57:15;;;;;;;;;;;;;;;;;;5079300;28;19924;-68
2022/10/04 01:59:42;;;;;;;;;;;;;;;;;;5080959;28;19964;-68
2022/10/04 02:02:09;;;;;;;;;;;;;;;;;;5082127;28;19935;-68
2022/10/04 02:04:37;;;;;;;;;;;;;;;;;;5086041;28;19931;-69
2022/10/04 02:07:04;;;;;;;;;;;;;;;;;;5081953;28;19951;-68
2022/10/04 02:09:31;;;;;;;;;;;;;;;;;;5077878;28;19980;-68
2022/10/04 02:11:58;;;;;;;;;;;;;;;;;;5087913;28;19989;-68
2022/10/04 02:14:25;;;;;;;;;;;;;;;;;;5082260;28;19985;-68
2022/10/04 02:16:52;;;;;;;;;;;;;;;;;;5082908;28;19924;-68
2022/10/04 02:19:19;;;;;;;;;;;;;;;;;;5085521;28;19980;-68
2022/10/04 02:21:46;;;;;;;;;;;;;;;;;;5085774;28;20445;-69
2022/10/04 02:24:13;;;;;;;;;;;;;;;;;;5081468;28;19939;-68
2022/10/04 02:26:40;;;;;;;;;;;;;;;;;;5084165;28;20429;-68
2022/10/04 02:29:07;;;;;;;;;;;;;;;;;;5082898;28;19928;-68
2022/10/04 02:34:19;;;;;;;;;;;;;;;;;;5082984;28;20298;-68
2022/10/04 02:36:50;;;;;;;;;;;;;;;;;;5083196;28;19932;-68
2022/10/04 02:39:17;;;;;;;;;;;;;;;;;;5081420;28;19935;-68
2022/10/04 02:41:44;;;;;;;;;;;;;;;;;;5083396;28;19927;-69
2022/10/04 02:44:11;;;;;;;;;;;;;;;;;;5085368;28;20005;-69
2022/10/04 02:46:38;;;;;;;;;;;;;;;;;;5084861;28;19928;-68
2022/10/04 02:49:05;;;;;;;;;;;;;;;;;;5088776;28;20317;-68
2022/10/04 02:51:32;;;;;;;;;;;;;;;;;;5083280;28;19939;-68
2022/10/04 02:53:59;;;;;;;;;;;;;;;;;;5085696;28;20332;-68
2022/10/04 02:56:26;;;;;;;;;;;;;;;;;;5084219;28;19977;-68
2022/10/04 02:58:53;;;;;;;;;;;;;;;;;;5085877;28;19932;-68
2022/10/04 03:01:20;;;;;;;;;;;;;;;;;;5082136;28;20055;-69
2022/10/04 03:03:47;;;;;;;;;;;;;;;;;;5085742;28;20445;-68
2022/10/04 03:06:14;;;;;;;;;;;;;;;;;;5089423;28;19935;-69
2022/10/04 03:08:41;;;;;;;;;;;;;;;;;;5084365;28;20389;-68
2022/10/04 03:11:10;;;;;;;;;;;;;;;;;;5083143;28;19936;-68
2022/10/04 03:13:37;;;;;;;;;;;;;;;;;;5086961;28;19931;-69
2022/10/04 03:16:04;;;;;;;;;;;;;;;;;;5087373;28;19955;-68
2022/10/04 03:18:31;;;;;;;;;;;;;;;;;;5087722;28;20314;-68
2022/10/04 03:20:58;;;;;;;;;;;;;;;;;;5091260;28;19977;-68
2022/10/04 03:23:25;;;;;;;;;;;;;;;;;;5088941;28;20579;-68
2022/10/04 03:25:52;;;;;;;;;;;;;;;;;;5087928;28;19939;-69
2022/10/04 03:28:19;;;;;;;;;;;;;;;;;;5089701;28;19958;-68
2022/10/04 03:30:46;;;;;;;;;;;;;;;;;;5084753;28;19936;-68
2022/10/04 03:33:13;;;;;;;;;;;;;;;;;;5085481;28;19932;-68
2022/10/04 03:35:40;;;;;;;;;;;;;;;;;;5087177;28;19928;-68
2022/10/04 03:38:07;;;;;;;;;;;;;;;;;;5083672;28;19931;-68
2022/10/04 03:40:35;;;;;;;;;;;;;;;;;;5086135;28;20666;-68
2022/10/04 03:43:02;;;;;;;;;;;;;;;;;;5084520;28;20540;-68
2022/10/04 03:45:29;;;;;;;;;;;;;;;;;;5081918;28;19945;-68
2022/10/04 03:47:57;;;;;;;;;;;;;;;;;;5079682;28;20623;-68
2022/10/04 03:50:25;;;;;;;;;;;;;;;;;;5087643;28;20383;-68
2022/10/04 03:52:54;;;;;;;;;;;;;;;;;;5090049;28;20419;-68
2022/10/04 03:55:21;;;;;;;;;;;;;;;;;;5091074;28;19924;-68
2022/10/04 03:57:48;;;;;;;;;;;;;;;;;;5076091;28;19930;-68
2022/10/04 04:00:15;;;;;;;;;;;;;;;;;;5082605;28;20652;-68
2022/10/04 04:02:42;;;;;;;;;;;;;;;;;;5086479;28;19924;-68
2022/10/04 04:05:09;;;;;;;;;;;;;;;;;;5086519;28;19950;-69
2022/10/04 04:07:36;;;;;;;;;;;;;;;;;;5085609;28;19935;-69
2022/10/04 04:10:04;;;;;;;;;;;;;;;;;;5086431;28;19928;-69
2022/10/04 04:12:32;;;;;;;;;;;;;;;;;;5086876;28;19982;-68
2022/10/04 04:15:00;;;;;;;;;;;;;;;;;;5081040;28;19931;-68
2022/10/04 04:17:27;;;;;;;;;;;;;;;;;;5086081;28;19924;-68
2022/10/04 04:19:54;;;;;;;;;;;;;;;;;;5093297;28;20024;-68
2022/10/04 04:22:21;;;;;;;;;;;;;;;;;;5082422;28;19935;-68
2022/10/04 04:24:48;;;;;;;;;;;;;;;;;;5089916;28;19924;-68
2022/10/04 04:27:15;;;;;;;;;;;;;;;;;;5092115;28;20009;-68
2022/10/04 04:29:42;;;;;;;;;;;;;;;;;;5094348;28;19924;-68
2022/10/04 04:32:09;;;;;;;;;;;;;;;;;;5092864;28;19939;-68
2022/10/04 04:34:36;;;;;;;;;;;;;;;;;;5101738;28;19924;-68
2022/10/04 04:37:03;;;;;;;;;;;;;;;;;;5096686;28;19941;-68
2022/10/04 04:39:39;;;;;;;;;;;;;;;;;;5093078;28;19985;-68
2022/10/04 04:42:06;;;;;;;;;;;;;;;;;;5087902;28;19992;-68
2022/10/04 04:44:33;;;;;;;;;;;;;;;;;;5087361;28;19975;-68
2022/10/04 04:47:00;;;;;;;;;;;;;;;;;;5078368;28;20409;-69
2022/10/04 04:49:28;;;;;;;;;;;;;;;;;;5077723;28;19929;-68
2022/10/04 04:51:56;;;;;;;;;;;;;;;;;;5084817;28;19959;-69
2022/10/04 04:54:23;;;;;;;;;;;;;;;;;;5076947;28;19932;-69
2022/10/04 04:56:50;;;;;;;;;;;;;;;;;;5088216;28;19935;-68
2022/10/04 04:59:17;;;;;;;;;;;;;;;;;;5082934;28;19928;-68
2022/10/04 05:01:45;;;;;;;;;;;;;;;;;;5082411;28;19956;-69
2022/10/04 05:04:12;;;;;;;;;;;;;;;;;;5078139;28;19967;-69
2022/10/04 05:06:39;;;;;;;;;;;;;;;;;;5075843;28;19966;-69
2022/10/04 05:09:06;;;;;;;;;;;;;;;;;;5080273;28;19928;-68
2022/10/04 05:11:33;;;;;;;;;;;;;;;;;;5082422;28;20370;-68
2022/10/04 05:14:00;;;;;;;;;;;;;;;;;;5082206;28;19935;-68
2022/10/04 05:16:27;;;;;;;;;;;;;;;;;;5082982;28;20023;-68
2022/10/04 05:18:54;;;;;;;;;;;;;;;;;;5076778;28;19931;-68
2022/10/04 05:21:21;;;;;;;;;;;;;;;;;;5080130;28;20423;-69
2022/10/04 05:23:48;;;;;;;;;;;;;;;;;;5075061;28;19928;-68
2022/10/04 05:26:15;;;;;;;;;;;;;;;;;;5073791;28;19929;-68
2022/10/04 05:28:42;;;;;;;;;;;;;;;;;;5083715;28;19924;-68
2022/10/04 05:31:09;;;;;;;;;;;;;;;;;;5076045;28;20460;-68
2022/10/04 05:33:38;;;;;;;;;;;;;;;;;;5078503;28;19924;-68
2022/10/04 05:36:05;;;;;;;;;;;;;;;;;;5086701;28;19979;-68
2022/10/04 05:38:32;;;;;;;;;;;;;;;;;;5084946;28;19928;-68
2022/10/04 05:40:59;;;;;;;;;;;;;;;;;;5079573;28;19978;-68
2022/10/04 05:43:26;;;;;;;;;;;;;;;;;;5080880;28;19925;-69
2022/10/04 05:45:53;;;;;;;;;;;;;;;;;;5088777;28;19924;-68
2022/10/04 05:48:20;;;;;;;;;;;;;;;;;;5084248;28;19935;-68
2022/10/04 05:50:47;;;;;;;;;;;;;;;;;;5079871;28;19932;-68
2022/10/04 05:53:15;;;;;;;;;;;;;;;;;;5082067;28;19931;-68
2022/10/04 05:55:42;;;;;;;;;;;;;;;;;;5076224;28;19928;-68
2022/10/04 05:58:09;;;;;;;;;;;;;;;;;;5076793;28;20031;-68
2022/10/04 06:00:36;;;;;;;;;;;;;;;;;;5078329;28;19964;-68
2022/10/04 06:03:03;;;;;;;;;;;;;;;;;;5076849;28;19947;-68
2022/10/04 06:05:30;;;;;;;;;;;;;;;;;;5081630;28;20291;-68
2022/10/04 06:07:57;;;;;;;;;;;;;;;;;;5077073;28;19924;-68
2022/10/04 06:10:24;;;;;;;;;;;;;;;;;;5077647;28;19939;-68
2022/10/04 06:12:52;;;;;;;;;;;;;;;;;;5080744;28;19928;-68
2022/10/04 06:15:19;;;;;;;;;;;;;;;;;;5081676;28;19928;-68
2022/10/04 06:17:46;;;;;;;;;;;;;;;;;;5084974;28;20398;-68
2022/10/04 06:20:13;;;;;;;;;;;;;;;;;;5086878;28;19931;-68
2022/10/04 06:22:40;;;;;;;;;;;;;;;;;;5089198;28;19939;-68
2022/10/04 06:25:08;;;;;;;;;;;;;;;;;;5086515;28;19931;-67
2022/10/04 06:27:35;;;;;;;;;;;;;;;;;;5086968;28;20327;-68
2022/10/04 06:30:02;;;;;;;;;;;;;;;;;;5081993;28;19924;-68
2022/10/04 06:32:29;;;;;;;;;;;;;;;;;;5086059;28;19939;-68
2022/10/04 06:34:57;;;;;;;;;;;;;;;;;;5088386;28;20383;-68
2022/10/04 06:37:24;;;;;;;;;;;;;;;;;;5088196;28;19933;-68
2022/10/04 06:39:51;;;;;;;;;;;;;;;;;;5087680;28;19928;-68
2022/10/04 06:42:18;;;;;;;;;;;;;;;;;;5085235;28;19981;-67
2022/10/04 06:44:45;;;;;;;;;;;;;;;;;;5085850;28;19928;-68
2022/10/04 06:47:12;;;;;;;;;;;;;;;;;;5086168;28;19970;-68
2022/10/04 06:49:39;;;;;;;;;;;;;;;;;;5091314;28;21071;-68
2022/10/04 06:52:06;;;;;;;;;;;;;;;;;;5087732;28;19939;-68
2022/10/04 06:54:33;;;;;;;;;;;;;;;;;;5084817;28;20581;-69
2022/10/04 06:57:00;;;;;;;;;;;;;;;;;;5083675;28;19928;-68
2022/10/04 06:59:27;;;;;;;;;;;;;;;;;;5082837;28;19924;-68
2022/10/04 07:01:56;;;;;;;;;;;;;;;;;;5087860;28;19928;-68
2022/10/04 07:04:23;;;;;;;;;;;;;;;;;;5083346;28;20310;-69
2022/10/04 07:06:50;;;;;;;;;;;;;;;;;;5088576;28;19932;-68
2022/10/04 07:09:17;;;;;;;;;;;;;;;;;;5085828;28;19951;-68
2022/10/04 07:11:44;;;;;;;;;;;;;;;;;;5092017;28;19977;-68
2022/10/04 07:14:11;;;;;;;;;;;;;;;;;;5081379;28;20425;-68
2022/10/04 07:16:38;;;;;;;;;;;;;;;;;;5084616;28;19931;-68
2022/10/04 07:19:07;;;;;;;;;;;;;;;;;;5089998;28;20357;-68
2022/10/04 07:21:34;;;;;;;;;;;;;;;;;;5080409;28;19924;-68
2022/10/04 07:24:02;;;;;;;;;;;;;;;;;;5086842;28;19939;-68
2022/10/04 07:26:29;;;;;;;;;;;;;;;;;;5085812;28;20038;-69
2022/10/04 07:31:41;;;;;;;;;;;;;;;;;;5082898;28;19928;-68
2022/10/04 07:34:08;;;;;;;;;;;;;;;;;;5092185;28;19924;-68
2022/10/04 07:36:35;;;;;;;;;;;;;;;;;;5087160;28;19935;-68
2022/10/04 07:39:02;;;;;;;;;;;;;;;;;;5090773;28;19924;-68
2022/10/04 07:41:29;;;;;;;;;;;;;;;;;;5079113;28;20391;-69
2022/10/04 07:43:56;;;;;;;;;;;;;;;;;;5087928;28;19939;-69
2022/10/04 07:46:23;;;;;;;;;;;;;;;;;;5091902;28;19933;-68
2022/10/04 07:48:50;;;;;;;;;;;;;;;;;;5090607;28;19927;-68
2022/10/04 07:51:17;;;;;;;;;;;;;;;;;;5087643;28;19931;-68
2022/10/04 07:53:44;;;;;;;;;;;;;;;;;;5087378;28;19924;-68
2022/10/04 07:56:11;;;;;;;;;;;;;;;;;;5088006;28;19951;-68
2022/10/04 07:58:38;;;;;;;;;;;;;;;;;;5086411;28;19928;-68
2022/10/04 08:01:05;;;;;;;;;;;;;;;;;;5083825;28;20252;-68
2022/10/04 08:03:33;;;;;;;;;;;;;;;;;;5089023;28;19931;-68
2022/10/04 08:06:00;;;;;;;;;;;;;;;;;;5087754;28;19932;-69
2022/10/04 08:08:27;;;;;;;;;;;;;;;;;;5085446;28;19932;-69
2022/10/04 08:10:55;;;;;;;;;;;;;;;;;;5086827;28;19924;-69
2022/10/04 08:13:22;;;;;;;;;;;;;;;;;;5092282;28;19936;-69
2022/10/04 08:15:49;;;;;;;;;;;;;;;;;;5084690;28;20383;-68
2022/10/04 08:18:16;;;;;;;;;;;;;;;;;;5082613;28;19989;-68
2022/10/04 08:20:43;;;;;;;;;;;;;;;;;;5089767;28;19947;-68
2022/10/04 08:23:10;;;;;;;;;;;;;;;;;;5080181;28;19932;-68
2022/10/04 08:25:37;;;;;;;;;;;;;;;;;;5088099;28;19932;-68
2022/10/04 08:30:48;;;;;;;;;;;;;;;;;;5083102;28;20290;-69
2022/10/04 08:33:15;;;;;;;;;;;;;;;;;;5091791;28;19934;-69
2022/10/04 08:35:42;;;;;;;;;;;;;;;;;;5087684;28;19924;-70
2022/10/04 08:38:09;;;;;;;;;;;;;;;;;;5083380;28;20024;-69
2022/10/04 08:40:37;;;;;;;;;;;;;;;;;;5085618;28;19932;-69
2022/10/04 08:43:04;;;;;;;;;;;;;;;;;;5083277;28;20325;-69
2022/10/04 08:45:31;;;;;;;;;;;;;;;;;;5085209;28;19928;-68
2022/10/04 08:47:58;;;;;;;;;;;;;;;;;;5084967;28;19924;-68
2022/10/04 08:50:25;;;;;;;;;;;;;;;;;;5087818;28;20434;-69
2022/10/04 08:52:52;;;;;;;;;;;;;;;;;;5085698;28;19928;-68
2022/10/04 08:55:20;;;;;;;;;;;;;;;;;;5083623;28;20402;-68
2022/10/04 08:57:47;;;;;;;;;;;;;;;;;;5085173;28;19928;-68
2022/10/04 09:00:14;;;;;;;;;;;;;;;;;;5089212;28;19924;-68
2022/10/04 09:02:41;;;;;;;;;;;;;;;;;;5086459;28;19935;-69
2022/10/04 09:05:08;;;;;;;;;;;;;;;;;;5089094;28;20797;-68
2022/10/04 09:07:37;;;;;;;;;;;;;;;;;;5083475;28;19928;-68
2022/10/04 09:10:04;;;;;;;;;;;;;;;;;;5087453;28;20322;-68
2022/10/04 09:12:31;;;;;;;;;;;;;;;;;;5083592;28;19939;-69
2022/10/04 09:15:00;;;;;;;;;;;;;;;;;;5086023;28;19924;-69
2022/10/04 09:17:27;;;;;;;;;;;;;;;;;;5084839;28;19939;-69
2022/10/04 09:19:55;;;;;;;;;;;;;;;;;;5085012;28;19932;-69
2022/10/04 09:22:22;;;;;;;;;;;;;;;;;;5082939;28;20017;-70
2022/10/04 09:24:49;;;;;;;;;;;;;;;;;;5090906;28;19928;-69
2022/10/04 09:27:18;;;;;;;;;;;;;;;;;;5085286;28;19934;-69
2022/10/04 09:29:45;;;;;;;;;;;;;;;;;;5086704;28;20353;-70
2022/10/04 09:32:12;;;;;;;;;;;;;;;;;;5085638;28;20311;-69
2022/10/04 09:34:40;;;;;;;;;;;;;;;;;;5088794;28;19939;-69
2022/10/04 09:37:07;;;;;;;;;;;;;;;;;;5087403;28;21218;-68
2022/10/04 09:39:34;;;;;;;;;;;;;;;;;;5094665;28;20011;-69
2022/10/04 09:42:02;;;;;;;;;;;;;;;;;;5086360;28;19936;-69
2022/10/04 09:44:29;;;;;;;;;;;;;;;;;;5086371;28;19932;-69
2022/10/04 09:46:56;;;;;;;;;;;;;;;;;;5084687;28;19932;-69
2022/10/04 09:49:23;;;;;;;;;;;;;;;;;;5082211;28;19968;-70
2022/10/04 09:51:50;;;;;;;;;;;;;;;;;;5081922;28;19928;-69
2022/10/04 09:54:18;;;;;;;;;;;;;;;;;;5083291;28;19934;-69
2022/10/04 09:56:45;;;;;;;;;;;;;;;;;;5079404;28;19950;-70
2022/10/04 09:59:13;;;;;;;;;;;;;;;;;;5084966;28;19935;-70
2022/10/04 10:01:40;;;;;;;;;;;;;;;;;;5074208;28;20316;-69
2022/10/04 10:04:07;;;;;;;;;;;;;;;;;;5084931;28;19927;-70
2022/10/04 10:06:34;;;;;;;;;;;;;;;;;;5076699;28;19932;-70
2022/10/04 10:09:01;;;;;;;;;;;;;;;;;;5083579;28;19936;-70
2022/10/04 10:14:13;;;;;;;;;;;;;;;;;;5081941;28;19924;-69
2022/10/04 10:16:40;;;;;;;;;;;;;;;;;;5080655;28;19931;-69
2022/10/04 10:19:10;;;;;;;;;;;;;;;;;;5085530;28;20156;-70
2022/10/04 10:21:37;;;;;;;;;;;;;;;;;;5089097;28;19931;-70
2022/10/04 10:24:04;;;;;;;;;;;;;;;;;;5090723;28;19928;-69
2022/10/04 10:26:31;;;;;;;;;;;;;;;;;;5084302;28;19928;-69
2022/10/04 10:28:58;;;;;;;;;;;;;;;;;;5093336;28;19939;-69
2022/10/04 10:31:25;;;;;;;;;;;;;;;;;;5093692;28;19931;-69
2022/10/04 10:33:52;;;;;;;;;;;;;;;;;;5086709;28;19931;-69
2022/10/04 10:36:20;;;;;;;;;;;;;;;;;;5086486;28;20278;-69
2022/10/04 10:38:47;;;;;;;;;;;;;;;;;;5089640;28;19975;-70
2022/10/04 10:41:14;;;;;;;;;;;;;;;;;;5085098;28;19931;-69
2022/10/04 10:43:41;;;;;;;;;;;;;;;;;;5084888;28;20591;-70
2022/10/04 10:46:09;;;;;;;;;;;;;;;;;;5082132;28;19932;-69
2022/10/04 10:48:36;;;;;;;;;;;;;;;;;;5084662;28;19928;-70
2022/10/04 10:51:03;;;;;;;;;;;;;;;;;;5079167;28;19924;-72
2022/10/04 10:53:30;;;;;;;;;;;;;;;;;;5083851;28;19928;-70
2022/10/04 10:55:57;;;;;;;;;;;;;;;;;;5085791;28;19928;-70
2022/10/04 10:58:25;;;;;;;;;;;;;;;;;;5085009;28;19967;-69
2022/10/04 11:00:52;;;;;;;;;;;;;;;;;;5087457;28;19924;-69
2022/10/04 11:03:19;;;;;;;;;;;;;;;;;;5088605;28;20394;-69
2022/10/04 11:05:46;;;;;;;;;;;;;;;;;;5088920;28;19928;-69
2022/10/04 11:08:13;;;;;;;;;;;;;;;;;;5096765;28;19927;-70
2022/10/04 11:10:40;;;;;;;;;;;;;;;;;;5089027;28;19939;-70
2022/10/04 11:13:07;;;;;;;;;;;;;;;;;;5091363;28;20472;-69
2022/10/04 11:15:37;;;;;;;;;;;;;;;;;;5092317;28;19927;-69
2022/10/04 11:18:04;;;;;;;;;;;;;;;;;;5087551;28;20513;-69
2022/10/04 11:20:31;;;;;;;;;;;;;;;;;;5088159;28;20411;-69
2022/10/04 11:22:59;;;;;;;;;;;;;;;;;;5085776;28;20291;-70
2022/10/04 11:25:28;;;;;;;;;;;;;;;;;;5085525;28;19928;-70
2022/10/04 11:27:55;;;;;;;;;;;;;;;;;;5091456;28;19985;-69
2022/10/04 11:30:23;;;;;;;;;;;;;;;;;;5091687;28;20439;-70
2022/10/04 11:32:50;;;;;;;;;;;;;;;;;;5098297;27;19924;-69
2022/10/04 11:35:17;;;;;;;;;;;;;;;;;;5089073;28;19955;-71
2022/10/04 11:37:46;;;;;;;;;;;;;;;;;;5089629;28;19931;-69
2022/10/04 11:40:13;;;;;;;;;;;;;;;;;;5088230;28;20020;-70
2022/10/04 11:42:40;;;;;;;;;;;;;;;;;;5082501;28;19929;-69
2022/10/04 11:45:07;;;;;;;;;;;;;;;;;;5090955;28;19936;-69
2022/10/04 11:47:34;;;;;;;;;;;;;;;;;;5088612;28;20302;-69
2022/10/04 11:50:01;;;;;;;;;;;;;;;;;;5089598;28;19928;-69
2022/10/04 11:52:28;;;;;;;;;;;;;;;;;;5093607;28;19932;-69
2022/10/04 11:54:56;;;;;;;;;;;;;;;;;;5088562;28;19947;-69
2022/10/04 11:57:23;;;;;;;;;;;;;;;;;;5088939;28;19928;-70
2022/10/04 11:59:50;;;;;;;;;;;;;;;;;;5087912;28;19971;-70
2022/10/04 12:02:17;;;;;;;;;;;;;;;;;;5086378;28;19928;-69
2022/10/04 12:04:44;;;;;;;;;;;;;;;;;;5088234;28;20576;-70
2022/10/04 12:07:11;;;;;;;;;;;;;;;;;;5089737;28;19932;-70
2022/10/04 12:09:38;;;;;;;;;;;;;;;;;;5083615;28;19932;-70
2022/10/04 12:14:49;;;;;;;;;;;;;;;;;;5088743;28;19931;-70
2022/10/04 12:17:17;;;;;;;;;;;;;;;;;;5090559;28;19936;-70
2022/10/04 12:19:44;;;;;;;;;;;;;;;;;;5085237;28;19931;-70
2022/10/04 12:22:11;;;;;;;;;;;;;;;;;;5089524;28;20404;-71
2022/10/04 12:24:38;;;;;;;;;;;;;;;;;;5085680;28;20800;-71
2022/10/04 12:27:05;;;;;;;;;;;;;;;;;;5086348;28;19923;-70
2022/10/04 12:29:32;;;;;;;;;;;;;;;;;;5093169;28;19932;-70
2022/10/04 12:31:59;;;;;;;;;;;;;;;;;;5096553;28;19927;-70
2022/10/04 12:34:26;;;;;;;;;;;;;;;;;;5096262;28;19927;-70
2022/10/04 12:36:53;;;;;;;;;;;;;;;;;;5087927;28;20306;-70
2022/10/04 12:39:20;;;;;;;;;;;;;;;;;;5087126;28;19928;-70
2022/10/04 12:41:47;;;;;;;;;;;;;;;;;;5094997;28;19959;-70
2022/10/04 12:44:14;;;;;;;;;;;;;;;;;;5087779;28;19935;-69
2022/10/04 12:46:41;;;;;;;;;;;;;;;;;;5087456;28;19959;-70
2022/10/04 12:49:09;;;;;;;;;;;;;;;;;;5086846;28;20016;-70
2022/10/04 12:51:37;;;;;;;;;;;;;;;;;;5082264;28;19969;-70
2022/10/04 12:54:04;;;;;;;;;;;;;;;;;;5092916;28;20542;-69
2022/10/04 12:56:31;;;;;;;;;;;;;;;;;;5085629;28;20036;-70
2022/10/04 12:58:58;;;;;;;;;;;;;;;;;;5091509;28;19923;-70
2022/10/04 13:01:25;;;;;;;;;;;;;;;;;;5087219;28;19935;-69
2022/10/04 13:03:52;;;;;;;;;;;;;;;;;;5091983;28;19959;-70
2022/10/04 13:06:19;;;;;;;;;;;;;;;;;;5081826;28;20612;-70
2022/10/04 13:08:46;;;;;;;;;;;;;;;;;;5090214;28;20375;-70
2022/10/04 13:11:13;;;;;;;;;;;;;;;;;;5082903;28;19924;-69
2022/10/04 13:13:41;;;;;;;;;;;;;;;;;;5092128;28;20527;-70
2022/10/04 13:16:08;;;;;;;;;;;;;;;;;;5084421;28;20621;-69
2022/10/04 13:18:35;;;;;;;;;;;;;;;;;;5090269;28;19924;-71
2022/10/04 13:21:02;;;;;;;;;;;;;;;;;;5087681;28;19991;-70
2022/10/04 13:23:29;;;;;;;;;;;;;;;;;;5087316;28;19974;-70
2022/10/04 13:25:56;;;;;;;;;;;;;;;;;;5090569;28;20321;-70
2022/10/04 13:28:23;;;;;;;;;;;;;;;;;;5096987;28;19924;-70
2022/10/04 13:30:50;;;;;;;;;;;;;;;;;;5087041;28;19985;-69
2022/10/04 13:33:17;;;;;;;;;;;;;;;;;;5086735;28;20306;-70
2022/10/04 13:35:44;;;;;;;;;;;;;;;;;;5091226;28;19973;-70
2022/10/04 13:38:11;;;;;;;;;;;;;;;;;;5087474;28;19928;-71
2022/10/04 13:40:38;;;;;;;;;;;;;;;;;;5086803;28;19924;-70
2022/10/04 13:43:05;;;;;;;;;;;;;;;;;;5086263;28;20341;-70
2022/10/04 13:45:34;;;;;;;;;;;;;;;;;;5085650;28;20143;-70
2022/10/04 13:48:01;;;;;;;;;;;;;;;;;;5082126;28;19932;-71
2022/10/04 13:50:29;;;;;;;;;;;;;;;;;;5081625;28;19935;-70
2022/10/04 13:58:24;;;;;;;;;;;;;;;;;;5089112;28;19973;-72
2022/10/04 14:00:51;;;;;;;;;;;;;;;;;;5085788;28;20391;-76
2022/10/04 14:03:18;;;;;;;;;;;;;;;;;;5083899;28;19932;-73
2022/10/04 14:05:45;;;;;;;;;;;;;;;;;;5081194;28;19951;-73
2022/10/04 14:08:13;;;;;;;;;;;;;;;;;;5082607;28;19928;-72
2022/10/04 14:10:40;;;;;;;;;;;;;;;;;;5084336;28;19932;-72
2022/10/04 14:13:07;;;;;;;;;;;;;;;;;;5079124;28;19928;-73
2022/10/04 14:15:34;;;;;;;;;;;;;;;;;;5082962;28;19935;-73
2022/10/04 14:18:01;;;;;;;;;;;;;;;;;;5082060;28;19928;-72
2022/10/04 14:20:28;;;;;;;;;;;;;;;;;;5079367;28;19935;-71
2022/10/04 14:22:55;;;;;;;;;;;;;;;;;;5084221;28;19967;-72
2022/10/04 14:25:22;;;;;;;;;;;;;;;;;;5082976;28;19934;-75
2022/10/04 14:27:50;;;;;;;;;;;;;;;;;;5084101;28;19932;-71
2022/10/04 14:30:17;;;;;;;;;;;;;;;;;;5085372;28;19928;-72
2022/10/04 14:32:44;;;;;;;;;;;;;;;;;;5084944;28;20252;-72
2022/10/04 14:35:11;;;;;;;;;;;;;;;;;;5083379;28;20016;-73
2022/10/04 14:37:39;;;;;;;;;;;;;;;;;;5079108;28;20498;-71
2022/10/04 14:40:06;;;;;;;;;;;;;;;;;;5089794;28;20445;-71
2022/10/04 14:42:33;;;;;;;;;;;;;;;;;;5088222;28;19928;-71
2022/10/04 14:45:00;;;;;;;;;;;;;;;;;;5087483;28;19932;-71
2022/10/04 14:47:27;;;;;;;;;;;;;;;;;;5083377;28;19924;-71
2022/10/04 14:49:56;;;;;;;;;;;;;;;;;;5086628;28;19948;-71
2022/10/04 14:52:23;;;;;;;;;;;;;;;;;;5088501;28;20387;-71
2022/10/04 14:54:51;;;;;;;;;;;;;;;;;;5089695;28;20212;-72
2022/10/04 14:57:19;;;;;;;;;;;;;;;;;;5084996;28;19928;-71
2022/10/04 14:59:47;;;;;;;;;;;;;;;;;;5087294;28;19931;-72
2022/10/04 15:02:14;;;;;;;;;;;;;;;;;;5086351;28;20003;-71
2022/10/04 15:04:41;;;;;;;;;;;;;;;;;;5081420;28;19932;-72
2022/10/04 15:07:09;;;;;;;;;;;;;;;;;;5078929;28;19937;-71
2022/10/04 15:09:36;;;;;;;;;;;;;;;;;;5092199;28;19924;-71
2022/10/04 15:12:03;;;;;;;;;;;;;;;;;;5074808;28;19936;-71
2022/10/04 15:14:33;;;;;;;;;;;;;;;;;;5085943;28;20622;-71
2022/10/04 15:17:00;;;;;;;;;;;;;;;;;;5076668;28;19929;-71
2022/10/04 15:19:27;;;;;;;;;;;;;;;;;;5088856;28;19938;-71
2022/10/04 15:21:54;;;;;;;;;;;;;;;;;;5084372;28;19931;-71
2022/10/04 15:24:22;;;;;;;;;;;;;;;;;;5081161;28;19939;-71
2022/10/04 15:26:49;;;;;;;;;;;;;;;;;;5081957;28;19932;-71
2022/10/04 15:29:22;;;;;;;;;;;;;;;;;;5089187;28;19927;-71
2022/10/04 15:31:49;;;;;;;;;;;;;;;;;;5076176;28;19950;-71
2022/10/04 15:34:16;;;;;;;;;;;;;;;;;;5085915;28;20457;-71
2022/10/04 15:36:43;;;;;;;;;;;;;;;;;;5083486;28;19928;-71
2022/10/04 15:39:10;;;;;;;;;;;;;;;;;;5078609;28;20013;-71
2022/10/04 15:41:37;;;;;;;;;;;;;;;;;;5070825;28;19932;-71
2022/10/04 15:44:06;;;;;;;;;;;;;;;;;;5074035;28;19928;-71
2022/10/04 15:46:33;;;;;;;;;;;;;;;;;;5071934;28;19936;-71
2022/10/04 15:49:02;;;;;;;;;;;;;;;;;;5073695;28;19934;-71
2022/10/04 15:51:30;;;;;;;;;;;;;;;;;;5073416;28;20391;-70
2022/10/04 15:53:57;;;;;;;;;;;;;;;;;;5076250;28;19935;-71
2022/10/04 15:56:24;;;;;;;;;;;;;;;;;;5075956;28;19928;-71
2022/10/04 15:58:51;;;;;;;;;;;;;;;;;;5080357;28;19932;-71
2022/10/04 16:01:19;;;;;;;;;;;;;;;;;;5078687;28;19932;-71
2022/10/04 16:03:46;;;;;;;;;;;;;;;;;;5082822;28;20031;-71
2022/10/04 16:06:13;;;;;;;;;;;;;;;;;;5084040;28;20327;-71
2022/10/04 16:08:40;;;;;;;;;;;;;;;;;;5083081;28;19932;-71
2022/10/04 16:11:07;;;;;;;;;;;;;;;;;;5081941;28;19928;-71
2022/10/04 16:13:34;;;;;;;;;;;;;;;;;;5087272;28;19928;-71
2022/10/04 16:16:01;;;;;;;;;;;;;;;;;;5085155;28;20659;-70
2022/10/04 16:18:29;;;;;;;;;;;;;;;;;;5086090;28;19950;-70
2022/10/04 16:20:56;;;;;;;;;;;;;;;;;;5085003;28;20290;-71
2022/10/04 16:23:23;;;;;;;;;;;;;;;;;;5081675;28;19935;-71
2022/10/04 16:25:50;;;;;;;;;;;;;;;;;;5084018;28;19973;-70
2022/10/04 16:28:18;;;;;;;;;;;;;;;;;;5087671;28;20438;-70
2022/10/04 16:30:45;;;;;;;;;;;;;;;;;;5088485;28;20412;-71
2022/10/04 16:33:12;;;;;;;;;;;;;;;;;;5080393;28;20017;-71
2022/10/04 16:35:39;;;;;;;;;;;;;;;;;;5084557;28;20294;-71
2022/10/04 16:38:06;;;;;;;;;;;;;;;;;;5079090;28;19932;-70
2022/10/04 16:40:33;;;;;;;;;;;;;;;;;;5079734;28;20280;-70
2022/10/04 16:43:02;;;;;;;;;;;;;;;;;;5084611;28;19928;-70
2022/10/04 16:45:29;;;;;;;;;;;;;;;;;;5084181;28;19924;-71
2022/10/04 16:47:56;;;;;;;;;;;;;;;;;;5088790;28;20328;-71
2022/10/04 16:50:26;;;;;;;;;;;;;;;;;;5084246;28;19935;-70
2022/10/04 16:52:53;;;;;;;;;;;;;;;;;;5082828;28;19938;-71
2022/10/04 16:55:20;;;;;;;;;;;;;;;;;;5087061;28;19931;-70
2022/10/04 16:57:47;;;;;;;;;;;;;;;;;;5085010;28;20455;-71
2022/10/04 17:00:14;;;;;;;;;;;;;;;;;;5089346;28;19965;-70
2022/10/04 17:02:42;;;;;;;;;;;;;;;;;;5085288;28;20409;-71
2022/10/04 17:05:09;;;;;;;;;;;;;;;;;;5087055;28;19935;-71